Time;durP1;ratioP1;P1;durP2;ratioP2;P2;SDS_P1;SDS_P2;PMS_P1;PMS_P2;Temp;Humidity;BMP_temperature;BMP_pressure;BME280_temperature;BME280_humidity;BME280_pressure;Samples;Min_cycle;Max_cycle;Signal;HPM_P1;HPM_P2
2022/03/28 00:00:45;;;;;;;14.02;11.35;;;;;;;12.63;58.34;101539.50;4162375;28;20042;-59
2022/03/28 00:02:48;;;;;;;17.45;11.23;;;;;;;12.71;58.26;101531.00;4160905;28;20073;-58
2022/03/28 00:04:51;;;;;;;16.45;12.38;;;;;;;12.79;58.36;101536.41;4158545;28;20033;-58
2022/03/28 00:06:53;;;;;;;15.48;11.68;;;;;;;12.81;58.12;101531.22;4161143;28;20072;-58
2022/03/28 00:08:56;;;;;;;16.67;12.25;;;;;;;12.82;58.49;101526.03;4161074;28;20046;-58
2022/03/28 00:10:59;;;;;;;17.67;11.80;;;;;;;12.86;58.29;101526.97;4158541;28;20045;-59
2022/03/28 00:13:03;;;;;;;15.85;10.82;;;;;;;12.85;57.85;101523.50;4161899;28;20053;-58
2022/03/28 00:15:08;;;;;;;13.93;11.60;;;;;;;12.83;58.22;101519.94;4153674;28;20507;-58
2022/03/28 00:17:10;;;;;;;17.55;11.88;;;;;;;12.83;58.32;101514.72;4154725;28;20070;-58
2022/03/28 00:19:13;;;;;;;13.70;11.50;;;;;;;12.83;58.52;101514.72;4161346;28;20038;-58
2022/03/28 00:21:16;;;;;;;17.40;12.15;;;;;;;12.80;57.98;101514.66;4159308;28;20037;-59
2022/03/28 00:23:18;;;;;;;15.82;11.98;;;;;;;12.75;57.94;101506.75;4160489;28;20053;-58
2022/03/28 00:25:21;;;;;;;19.48;11.82;;;;;;;12.76;57.91;101512.81;4161575;28;20427;-58
2022/03/28 00:27:24;;;;;;;15.27;12.45;;;;;;;12.74;58.37;101507.56;4163044;28;20454;-61
2022/03/28 00:29:28;;;;;;;19.40;12.73;;;;;;;12.74;58.46;101511.91;4165378;28;20551;-58
2022/03/28 00:31:31;;;;;;;15.32;10.82;;;;;;;12.70;58.40;101510.09;4160526;28;20196;-58
2022/03/28 00:33:34;;;;;;;15.18;11.05;;;;;;;12.68;58.38;101506.56;4162687;28;20055;-58
2022/03/28 00:35:37;;;;;;;13.50;10.70;;;;;;;12.71;57.73;101514.47;4158693;28;20041;-58
2022/03/28 00:37:41;;;;;;;14.43;11.05;;;;;;;12.69;57.95;101508.34;4153484;28;20042;-59
2022/03/28 00:39:44;;;;;;;15.25;11.82;;;;;;;12.70;58.28;101504.88;4162706;28;20451;-59
2022/03/28 00:41:47;;;;;;;13.43;10.63;;;;;;;12.70;58.23;101504.88;4164430;28;20049;-59
2022/03/28 00:43:55;;;;;;;14.63;11.50;;;;;;;12.69;58.68;101500.53;4163240;28;20103;-59
2022/03/28 00:45:59;;;;;;;13.20;11.27;;;;;;;12.65;58.10;101501.28;4161847;28;20116;-59
2022/03/28 00:48:02;;;;;;;16.70;12.57;;;;;;;12.55;58.53;101503.66;4158355;28;20065;-59
2022/03/28 00:50:06;;;;;;;23.10;12.23;;;;;;;12.51;59.16;101496.66;4162050;28;20095;-58
2022/03/28 00:52:10;;;;;;;14.77;12.10;;;;;;;12.45;59.34;101498.22;4164494;28;20042;-58
2022/03/28 00:54:13;;;;;;;14.60;11.85;;;;;;;12.40;59.51;101503.34;4159845;28;20139;-58
2022/03/28 00:56:16;;;;;;;17.88;12.00;;;;;;;12.37;59.27;101498.06;4161245;28;20495;-58
2022/03/28 00:58:18;;;;;;;14.93;12.13;;;;;;;12.34;59.23;101497.97;4164581;28;20056;-59
2022/03/28 01:00:22;;;;;;;14.35;11.57;;;;;;;12.28;59.02;101496.09;4165743;28;20061;-58
2022/03/28 01:02:26;;;;;;;17.10;11.43;;;;;;;12.32;59.13;101497.91;4163870;28;20095;-58
2022/03/28 01:04:29;;;;;;;17.23;12.02;;;;;;;12.32;59.15;101497.03;4159935;28;20103;-59
2022/03/28 01:06:33;;;;;;;13.20;10.35;;;;;;;12.32;59.32;101494.44;4165529;28;20049;-59
2022/03/28 01:08:36;;;;;;;13.45;11.00;;;;;;;12.29;59.32;101487.41;4159415;28;20324;-59
2022/03/28 01:10:39;;;;;;;15.75;10.82;;;;;;;12.27;59.48;101486.50;4177268;28;20045;-59
2022/03/28 01:12:43;;;;;;;15.40;10.77;;;;;;;12.30;59.42;101491.78;4163458;28;20041;-59
2022/03/28 01:14:47;;;;;;;14.48;11.48;;;;;;;12.29;59.49;101487.41;4163838;28;20081;-58
2022/03/28 01:19:12;;;;;;;13.43;10.57;;;;;;;12.26;59.75;101484.75;4164766;28;20053;-58
2022/03/28 01:21:17;;;;;;;14.43;11.50;;;;;;;12.20;59.73;101472.44;4164325;28;20045;-58
2022/03/28 01:23:20;;;;;;;16.17;11.02;;;;;;;12.20;59.50;101475.03;4161730;28;20060;-58
2022/03/28 01:25:24;;;;;;;17.63;11.38;;;;;;;12.20;59.35;101475.03;4153062;28;20045;-59
2022/03/28 01:27:28;;;;;;;17.60;11.70;;;;;;;12.19;60.15;101467.19;4159716;28;20052;-59
2022/03/28 01:29:30;;;;;;;14.85;10.50;;;;;;;12.16;59.47;101473.22;4157929;28;20480;-59
2022/03/28 01:31:33;;;;;;;18.60;12.07;;;;;;;12.14;59.53;101464.47;4164659;28;20061;-58
2022/03/28 01:33:36;;;;;;;14.90;12.02;;;;;;;12.07;60.23;101467.78;4193391;28;20075;-58
2022/03/28 01:35:41;;;;;;;14.45;11.70;;;;;;;12.07;60.40;101475.59;4180242;28;20114;-59
2022/03/28 01:37:45;;;;;;;14.70;10.65;;;;;;;12.07;60.16;101462.56;4161940;28;20096;-59
2022/03/28 01:39:48;;;;;;;15.23;11.77;;;;;;;12.11;60.44;101459.19;4164626;28;20056;-58
2022/03/28 01:41:50;;;;;;;13.15;10.75;;;;;;;12.16;60.10;101464.50;4158193;28;20049;-58
2022/03/28 01:43:53;;;;;;;15.80;12.23;;;;;;;12.14;59.89;101459.25;4156716;28;20400;-59
2022/03/28 01:45:56;;;;;;;16.38;11.80;;;;;;;12.16;60.30;101456.69;4164192;28;20037;-59
2022/03/28 01:47:58;;;;;;;19.60;11.70;;;;;;;12.18;60.12;101455.03;4163705;28;20411;-59
2022/03/28 01:50:01;;;;;;;19.40;10.80;;;;;;;12.10;60.43;101454.81;4165106;28;20045;-59
2022/03/28 01:52:05;;;;;;;14.30;11.27;;;;;;;12.14;60.72;101454.06;4162534;28;20040;-59
2022/03/28 01:54:10;;;;;;;16.48;10.82;;;;;;;12.20;61.15;101446.38;4162250;28;20049;-58
2022/03/28 01:56:12;;;;;;;;;;;;;;;12.06;61.95;101445.16;4165212;28;20083;-58
2022/03/28 01:58:15;;;;;;;15.52;10.15;;;;;;;12.16;61.55;101441.94;4164908;28;19975;-59
2022/03/28 02:00:20;;;;;;;15.40;10.45;;;;;;;12.23;61.16;101441.22;4164901;28;20049;-58
2022/03/28 02:02:23;;;;;;;15.40;10.02;;;;;;;12.28;60.60;101441.34;4156851;28;20057;-58
2022/03/28 02:04:26;;;;;;;16.58;10.88;;;;;;;12.32;60.62;101439.69;4163369;28;20477;-59
2022/03/28 02:06:29;;;;;;;14.35;11.05;;;;;;;12.29;61.27;101440.47;4163364;28;20033;-58
2022/03/28 02:08:34;;;;;;;15.23;11.43;;;;;;;12.30;61.08;101438.78;4151331;28;20060;-59
2022/03/28 02:10:38;;;;;;;17.10;11.60;;;;;;;12.34;60.94;101435.41;4163139;28;20084;-58
2022/03/28 02:12:41;;;;;;;13.23;11.13;;;;;;;12.31;61.33;101437.91;4170751;28;20049;-58
2022/03/28 02:14:44;;;;;;;14.50;10.30;;;;;;;12.31;61.08;101436.22;4155751;28;20049;-58
2022/03/28 02:16:47;;;;;;;15.73;11.15;;;;;;;12.29;60.91;101434.41;4154893;28;20124;-59
2022/03/28 02:18:50;;;;;;;14.68;10.32;;;;;;;12.25;60.37;101435.16;4157003;28;20097;-59
2022/03/28 02:20:52;;;;;;;14.93;12.20;;;;;;;12.23;61.24;101429.91;4161933;28;20104;-60
2022/03/28 02:22:55;;;;;;;16.80;10.77;;;;;;;12.23;61.41;101437.75;4172030;28;20118;-59
2022/03/28 02:24:58;;;;;;;14.02;10.93;;;;;;;12.20;60.92;101435.94;4164236;28;20580;-59
2022/03/28 02:27:02;;;;;;;13.45;10.05;;;;;;;12.15;60.78;101429.75;4159990;28;20041;-59
2022/03/28 02:29:05;;;;;;;15.27;10.88;;;;;;;12.08;61.04;101430.44;4162553;28;20041;-59
2022/03/28 02:31:10;;;;;;;17.65;11.98;;;;;;;12.03;60.96;101434.66;4160693;28;20049;-59
2022/03/28 02:33:13;;;;;;;14.38;11.80;;;;;;;11.95;61.42;101437.09;4158898;28;20041;-58
2022/03/28 02:35:15;;;;;;;18.73;12.02;;;;;;;11.90;61.33;101437.78;4178229;28;20059;-59
2022/03/28 02:37:18;;;;;;;17.02;11.45;;;;;;;11.87;62.21;101441.19;4154250;28;20454;-59
2022/03/28 02:39:21;;;;;;;13.20;9.80;;;;;;;11.77;62.50;101428.78;4160142;28;20057;-59
2022/03/28 02:41:23;;;;;;;13.40;10.77;;;;;;;11.70;62.69;101428.63;4160200;28;20048;-59
2022/03/28 02:43:28;;;;;;;14.77;9.70;;;;;;;11.66;62.44;101433.72;4155350;28;20068;-59
2022/03/28 02:45:33;;;;;;;12.98;10.70;;;;;;;11.63;62.68;101433.66;4160851;28;20099;-59
2022/03/28 02:47:37;;;;;;;14.85;10.52;;;;;;;11.57;63.04;101431.78;4161601;28;20399;-59
2022/03/28 02:49:39;;;;;;;13.63;10.38;;;;;;;11.57;62.76;101428.28;4157477;28;20084;-59
2022/03/28 02:51:43;;;;;;;17.55;11.77;;;;;;;11.51;62.84;101423.81;4154453;28;20041;-59
2022/03/28 02:53:45;;;;;;;15.32;12.02;;;;;;;11.41;63.55;101424.41;4163000;28;20049;-59
2022/03/28 02:55:48;;;;;;;16.27;12.30;;;;;;;11.35;62.99;101423.41;4157444;28;20106;-59
2022/03/28 02:57:51;;;;;;;15.13;11.68;;;;;;;11.35;63.72;101425.13;4189432;28;20087;-59
2022/03/28 02:59:55;;;;;;;14.07;11.73;;;;;;;11.34;63.17;101424.22;4159641;28;20108;-59
2022/03/28 03:01:58;;;;;;;20.13;13.77;;;;;;;11.28;63.06;101415.38;4194330;28;20072;-58
2022/03/28 03:04:01;;;;;;;18.30;12.43;;;;;;;11.26;63.84;101411.88;4162555;28;20091;-59
2022/03/28 03:06:04;;;;;;;18.35;12.77;;;;;;;11.20;63.97;101407.38;4159182;28;20041;-59
2022/03/28 03:08:08;;;;;;;16.77;12.50;;;;;;;11.18;64.19;101412.56;4194611;28;20078;-59
2022/03/28 03:10:11;;;;;;;18.08;13.40;;;;;;;11.14;63.82;101408.09;4159898;28;20404;-59
2022/03/28 03:12:13;;;;;;;18.70;13.05;;;;;;;11.09;64.43;101412.28;4175270;28;20441;-59
2022/03/28 03:14:16;;;;;;;18.02;13.32;;;;;;;11.04;64.82;101415.59;4158196;28;20095;-59
2022/03/28 03:16:20;;;;;;;16.33;12.63;;;;;;;10.91;64.97;101410.06;4161111;28;20569;-58
2022/03/28 03:18:23;;;;;;;18.95;12.32;;;;;;;10.82;64.73;101408.06;4156494;28;20415;-59
2022/03/28 03:20:25;;;;;;;14.38;11.45;;;;;;;10.85;64.88;101409.00;4161562;28;20548;-58
2022/03/28 03:22:28;;;;;;;18.10;13.57;;;;;;;10.85;64.39;101407.28;4162221;28;20045;-59
2022/03/28 03:24:31;;;;;;;16.70;12.73;;;;;;;10.85;64.78;101409.00;4157123;28;20049;-59
2022/03/28 03:26:34;;;;;;;16.70;13.85;;;;;;;10.86;65.16;101410.75;4161658;28;20049;-59
2022/03/28 03:28:37;;;;;;;16.95;11.75;;;;;;;10.76;64.80;101413.13;4155167;28;20042;-59
2022/03/28 03:30:40;;;;;;;19.83;14.25;;;;;;;10.77;64.91;101414.84;4153651;28;20045;-59
2022/03/28 03:32:45;;;;;;;16.33;12.27;;;;;;;10.78;65.11;101408.81;4160556;28;20049;-59
2022/03/28 03:34:47;;;;;;;15.32;11.52;;;;;;;10.78;64.60;101406.22;4161471;28;20458;-59
2022/03/28 03:36:50;;;;;;;17.00;12.27;;;;;;;10.83;64.60;101403.75;4159971;28;20689;-59
2022/03/28 03:38:53;;;;;;;15.98;13.23;;;;;;;10.86;64.17;101401.22;4155554;28;20050;-59
2022/03/28 03:40:56;;;;;;;21.90;13.98;;;;;;;10.82;63.92;101397.69;4158487;28;20033;-59
2022/03/28 03:42:59;;;;;;;17.10;12.85;;;;;;;10.78;64.10;101401.03;4162158;28;20061;-59
2022/03/28 03:45:05;;;;;;;17.77;13.10;;;;;;;10.78;64.56;101398.41;4158485;28;20041;-59
2022/03/28 03:47:08;;;;;;;17.60;13.48;;;;;;;10.72;64.76;101395.66;4159415;28;20100;-59
2022/03/28 03:49:12;;;;;;;17.80;13.30;;;;;;;10.65;64.83;101389.38;4159101;28;20112;-59
2022/03/28 03:51:15;;;;;;;20.38;13.18;;;;;;;10.63;64.59;101393.66;4163467;28;20041;-59
2022/03/28 03:53:19;;;;;;;18.67;14.02;;;;;;;10.62;64.81;101391.91;4156734;28;20042;-59
2022/03/28 03:55:22;;;;;;;18.63;13.50;;;;;;;10.53;65.28;101390.72;4162858;28;20319;-59
2022/03/28 03:57:26;;;;;;;22.67;14.40;;;;;;;10.45;65.49;101394.03;4158072;28;20296;-59
2022/03/28 03:59:29;;;;;;;20.87;15.10;;;;;;;10.42;65.76;101387.81;4160772;28;20099;-59
2022/03/28 04:01:31;;;;;;;17.98;14.13;;;;;;;10.40;65.80;101390.38;4197241;28;20053;-58
2022/03/28 04:03:34;;;;;;;18.13;14.77;;;;;;;10.36;66.01;101398.06;4157939;28;20472;-59
2022/03/28 04:05:38;;;;;;;19.25;13.68;;;;;;;10.35;66.37;101396.28;4168846;28;20462;-59
2022/03/28 04:07:41;;;;;;;19.50;14.43;;;;;;;10.33;66.25;101392.72;4165343;28;20539;-59
2022/03/28 04:09:44;;;;;;;23.50;14.43;;;;;;;10.37;66.13;101399.81;4165594;28;20044;-59
2022/03/28 04:11:47;;;;;;;20.85;13.52;;;;;;;10.36;66.35;101391.13;4166555;28;20037;-59
2022/03/28 04:13:49;;;;;;;20.15;14.10;;;;;;;10.37;65.88;101386.81;4163992;28;20060;-59
2022/03/28 04:15:52;;;;;;;18.75;13.90;;;;;;;10.34;66.05;101394.50;4152393;28;20034;-59
2022/03/28 04:17:55;;;;;;;20.50;14.13;;;;;;;10.35;66.25;101397.16;4166438;28;20029;-59
2022/03/28 04:19:58;;;;;;;17.38;13.00;;;;;;;10.35;66.18;101391.94;4154186;28;20053;-59
2022/03/28 04:22:02;;;;;;;20.30;14.48;;;;;;;10.35;65.90;101402.34;4158969;28;20050;-59
2022/03/28 04:24:05;;;;;;;21.00;14.57;;;;;;;10.31;65.88;101400.47;4156443;28;20045;-59
2022/03/28 04:26:08;;;;;;;19.23;14.23;;;;;;;10.27;65.82;101396.03;4157287;28;20041;-59
2022/03/28 04:28:11;;;;;;;19.60;14.32;;;;;;;10.25;65.68;101405.47;4166037;28;20045;-59
2022/03/28 04:30:15;;;;;;;19.35;14.05;;;;;;;10.22;66.04;101402.78;4163671;28;20121;-59
2022/03/28 04:32:17;;;;;;;21.67;15.32;;;;;;;10.22;65.87;101397.59;4166186;28;20037;-59
2022/03/28 04:34:20;;;;;;;18.08;13.90;;;;;;;10.22;66.29;101400.19;4163340;28;20045;-59
2022/03/28 04:36:23;;;;;;;20.42;14.93;;;;;;;10.16;66.03;101395.66;4165286;28;20175;-59
2022/03/28 04:38:28;;;;;;;16.92;13.98;;;;;;;10.11;66.50;101395.53;4162329;28;20116;-59
2022/03/28 04:40:32;;;;;;;16.55;12.80;;;;;;;10.04;66.75;101390.97;4154908;28;20042;-60
2022/03/28 04:42:35;;;;;;;19.65;15.18;;;;;;;10.06;66.83;101399.72;4152955;28;20419;-59
2022/03/28 04:44:38;;;;;;;21.35;15.32;;;;;;;10.04;67.10;101396.19;4158978;28;20065;-59
2022/03/28 04:46:41;;;;;;;17.73;13.27;;;;;;;9.94;66.99;101399.31;4162079;28;20037;-61
2022/03/28 04:48:43;;;;;;;21.30;15.23;;;;;;;9.89;67.23;101401.78;4156498;28;20060;-59
2022/03/28 04:50:46;;;;;;;21.23;14.85;;;;;;;9.88;67.20;101406.91;4160682;28;20253;-59
2022/03/28 04:52:49;;;;;;;20.33;14.48;;;;;;;9.85;67.40;101404.22;4162633;28;20063;-60
2022/03/28 04:54:53;;;;;;;18.55;14.38;;;;;;;9.88;67.48;101404.31;4150778;28;20111;-59
2022/03/28 04:56:56;;;;;;;28.73;16.10;;;;;;;9.88;67.22;101401.72;4154493;28;20069;-61
2022/03/28 04:58:58;;;;;;;20.05;14.70;;;;;;;9.89;67.07;101400.91;4163556;28;20084;-59
2022/03/28 05:01:01;;;;;;;19.98;15.88;;;;;;;9.88;66.91;101396.53;4158233;28;20041;-59
2022/03/28 05:03:05;;;;;;;18.02;14.38;;;;;;;9.81;66.73;101405.81;4160541;28;20459;-59
2022/03/28 05:05:08;;;;;;;21.60;14.70;;;;;;;9.75;67.10;101403.94;4165456;28;20038;-60
2022/03/28 05:07:11;;;;;;;21.42;15.35;;;;;;;9.69;67.03;101397.66;4155897;28;20427;-59
2022/03/28 05:09:13;;;;;;;21.95;15.90;;;;;;;9.67;67.05;101410.59;4163395;28;20450;-59
2022/03/28 05:11:22;;;;;;;20.77;14.93;;;;;;;9.67;67.28;101402.78;4156268;28;20404;-59
2022/03/28 05:13:27;;;;;;;17.40;13.43;;;;;;;9.62;67.21;101401.75;4162457;28;20069;-59
2022/03/28 05:15:31;;;;;;;18.95;14.90;;;;;;;9.55;67.09;101398.06;4164555;28;20049;-59
2022/03/28 05:17:34;;;;;;;19.45;13.40;;;;;;;9.50;67.33;101396.16;4152697;28;20111;-59
2022/03/28 05:19:36;;;;;;;16.67;12.98;;;;;;;9.54;67.10;101406.69;4150987;28;20054;-59
2022/03/28 05:21:39;;;;;;;22.70;14.95;;;;;;;9.53;67.12;101404.03;4155607;28;20041;-59
2022/03/28 05:23:46;;;;;;;20.20;14.70;;;;;;;9.55;66.97;101404.97;4160692;28;20111;-59
2022/03/28 05:25:48;;;;;;;22.38;11.88;;;;;;;9.42;66.97;101411.47;4158139;28;20053;-59
2022/03/28 05:27:55;;;;;;;18.13;13.93;;;;;;;9.25;67.68;101416.06;4153177;28;20042;-59
2022/03/28 05:29:59;;;;;;;23.33;14.65;;;;;;;9.20;68.00;101418.50;4163045;28;20052;-59
2022/03/28 05:32:03;;;;;;;29.67;16.38;;;;;;;9.18;68.17;101420.16;4164959;28;20049;-59
2022/03/28 05:34:05;;;;;;;19.75;14.57;;;;;;;9.21;68.07;101416.78;4160560;28;20155;-59
2022/03/28 05:36:09;;;;;;;21.73;13.52;;;;;;;9.22;67.93;101416.84;4159430;28;20037;-59
2022/03/28 05:38:12;;;;;;;19.90;13.73;;;;;;;9.22;67.78;101418.56;4156942;28;20405;-58
2022/03/28 05:40:15;;;;;;;21.15;14.63;;;;;;;9.24;67.79;101415.19;4160287;28;20559;-58
2022/03/28 05:42:20;;;;;;;22.45;13.90;;;;;;;9.24;67.84;101414.28;4164579;28;20049;-58
2022/03/28 05:44:28;;;;;;;20.48;15.02;;;;;;;9.12;68.25;101417.34;4156669;28;20050;-58
2022/03/28 05:46:30;;;;;;;25.42;15.32;;;;;;;9.13;67.96;101420.84;4162455;28;20426;-58
2022/03/28 05:48:35;;;;;;;23.35;13.80;;;;;;;9.14;67.83;101418.31;4156492;28;20057;-58
2022/03/28 05:50:38;;;;;;;19.23;12.98;;;;;;;9.13;67.72;101416.53;4161308;28;20041;-58
2022/03/28 05:52:41;;;;;;;20.63;13.85;;;;;;;9.23;67.71;101417.75;4159460;28;20042;-59
2022/03/28 05:54:43;;;;;;;19.38;14.48;;;;;;;9.23;67.87;101409.97;4163467;28;20095;-59
2022/03/28 05:56:48;;;;;;;19.17;12.85;;;;;;;9.21;67.83;101416.78;4158379;28;20082;-59
2022/03/28 05:58:50;;;;;;;25.55;15.10;;;;;;;9.19;68.34;101415.88;4158289;28;20037;-59
2022/03/28 06:00:54;;;;;;;21.77;15.52;;;;;;;9.32;68.11;101422.38;4164525;28;20050;-59
2022/03/28 06:02:58;;;;;;;24.88;15.32;;;;;;;9.29;68.20;101420.53;4148288;28;20133;-59
2022/03/28 06:05:01;;;;;;;21.30;15.13;;;;;;;9.34;67.96;101410.31;4159007;28;20054;-58
2022/03/28 06:07:04;;;;;;;24.15;15.93;;;;;;;9.40;67.74;101418.31;4157592;28;20096;-59
2022/03/28 06:09:07;;;;;;;28.70;15.70;;;;;;;9.46;67.60;101420.22;4156337;28;20107;-58
2022/03/28 06:11:10;;;;;;;25.83;15.45;;;;;;;9.41;67.93;101415.75;4154130;28;20454;-59
2022/03/28 06:13:13;;;;;;;18.60;14.13;;;;;;;9.43;67.87;101424.50;4162772;28;20046;-59
2022/03/28 06:15:18;;;;;;;24.08;15.90;;;;;;;9.46;67.86;101418.50;4159042;28;20050;-59
2022/03/28 06:17:23;;;;;;;21.98;12.98;;;;;;;9.41;68.17;101417.50;4161812;28;20041;-58
2022/03/28 06:19:26;;;;;;;22.20;15.25;;;;;;;9.33;68.68;101419.81;4153458;28;20033;-59
2022/03/28 06:21:30;;;;;;;19.58;14.70;;;;;;;9.41;68.65;101425.28;4160217;28;20534;-59
2022/03/28 06:23:33;;;;;;;;;;;;;;;9.29;69.23;101428.34;4159851;28;20466;-59
2022/03/28 06:25:36;;;;;;;19.15;14.10;;;;;;;9.35;69.08;101422.47;4158580;28;20402;-59
2022/03/28 06:27:42;;;;;;;20.42;15.48;;;;;;;9.33;68.99;101425.00;4147196;28;20037;-59
2022/03/28 06:29:45;;;;;;;19.67;13.48;;;;;;;9.29;69.53;101423.13;4148886;28;20046;-58
2022/03/28 06:31:47;;;;;;;18.48;12.82;;;;;;;9.42;69.15;101424.44;4164103;28;20423;-59
2022/03/28 06:33:52;;;;;;;19.58;14.27;;;;;;;9.53;69.34;101423.09;4156434;28;20129;-59
2022/03/28 06:35:56;;;;;;;18.73;15.10;;;;;;;9.59;69.53;101425.91;4154551;28;20514;-59
2022/03/28 06:37:59;;;;;;;23.42;16.50;;;;;;;9.68;69.34;101425.34;4161322;28;20053;-59
2022/03/28 06:40:03;;;;;;;17.80;14.48;;;;;;;9.75;69.29;101423.81;4163987;28;20455;-59
2022/03/28 06:42:07;;;;;;;16.95;13.93;;;;;;;9.76;69.25;101431.66;4161460;28;20041;-58
2022/03/28 06:44:11;;;;;;;21.17;13.07;;;;;;;9.81;69.04;101428.31;4164127;28;20124;-58
2022/03/28 06:46:14;;;;;;;18.90;12.48;;;;;;;9.83;69.19;101421.47;4159045;28;20041;-59
2022/03/28 06:48:17;;;;;;;19.08;14.35;;;;;;;9.88;69.25;101430.28;4161712;28;20041;-59
2022/03/28 06:50:36;;;;;;;23.25;16.50;;;;;;;9.88;68.75;101430.28;4160589;28;20148;-59
2022/03/28 06:52:39;;;;;;;22.65;15.02;;;;;;;9.97;68.35;101425.38;4147130;28;20500;-59
2022/03/28 06:54:42;;;;;;;25.67;16.63;;;;;;;10.05;68.02;101429.13;4158817;28;20116;-59
2022/03/28 06:56:45;;;;;;;19.20;15.15;;;;;;;10.14;68.05;101421.59;4154219;28;20053;-59
2022/03/28 06:58:48;;;;;;;17.13;13.27;;;;;;;10.23;67.78;101415.81;4156919;28;20443;-59
2022/03/28 07:00:51;;;;;;;19.08;13.90;;;;;;;10.29;68.29;101417.72;4158030;28;20053;-59
2022/03/28 07:02:54;;;;;;;19.90;14.68;;;;;;;10.35;67.99;101420.53;4159662;28;20135;-59
2022/03/28 07:05:03;;;;;;;24.20;16.38;;;;;;;10.43;67.43;101420.81;4152426;28;20454;-59
2022/03/28 07:07:08;;;;;;;22.02;14.93;;;;;;;10.44;67.34;101422.53;4148993;28;20046;-58
2022/03/28 07:09:11;;;;;;;20.55;14.98;;;;;;;10.47;67.47;101418.34;4144998;28;20095;-58
2022/03/28 07:11:14;;;;;;;20.85;15.70;;;;;;;10.56;67.13;101414.25;4144691;28;20037;-58
2022/03/28 07:13:19;;;;;;;25.52;16.45;;;;;;;10.61;67.52;101407.47;4146895;28;20140;-58
2022/03/28 07:15:22;;;;;;;24.45;16.10;;;;;;;10.67;67.22;101407.63;4145059;28;20050;-58
2022/03/28 07:17:27;;;;;;;20.45;16.10;;;;;;;10.75;67.18;101410.47;4157775;28;20084;-59
2022/03/28 07:19:30;;;;;;;21.92;14.60;;;;;;;10.72;66.95;101408.66;4153130;28;20499;-59
2022/03/28 07:21:33;;;;;;;21.00;14.85;;;;;;;10.65;66.50;101414.50;4156822;28;20530;-59
2022/03/28 07:23:40;;;;;;;24.17;15.27;;;;;;;10.64;66.80;101415.34;4162105;28;20351;-59
2022/03/28 07:25:49;;;;;;;22.65;15.77;;;;;;;10.66;66.70;101408.50;4159685;28;20034;-58
2022/03/28 07:27:58;;;;;;;23.20;14.75;;;;;;;10.68;66.04;101405.94;4159753;28;20041;-59
2022/03/28 07:30:01;;;;;;;19.67;14.57;;;;;;;10.81;66.09;101408.91;4153379;28;20037;-59
2022/03/28 07:32:04;;;;;;;20.90;14.32;;;;;;;10.79;66.06;101408.00;4162233;28;20527;-59
2022/03/28 07:36:28;;;;;;;19.63;15.63;;;;;;;11.05;66.35;101394.81;4166755;28;20046;-59
2022/03/28 07:38:30;;;;;;;17.80;13.93;;;;;;;11.11;66.17;101392.41;4167001;28;20049;-59
2022/03/28 07:40:35;;;;;;;20.15;15.38;;;;;;;11.14;65.41;101389.88;4176065;28;20033;-59
2022/03/28 07:42:40;;;;;;;23.15;16.02;;;;;;;11.21;65.62;101390.03;4166584;28;20049;-58
2022/03/28 07:44:47;;;;;;;21.90;14.98;;;;;;;11.35;65.77;101386.94;4166868;28;20073;-59
2022/03/28 07:46:55;;;;;;;20.52;15.85;;;;;;;11.46;64.84;101387.25;4166962;28;20056;-59
2022/03/28 07:48:58;;;;;;;28.45;17.25;;;;;;;11.62;65.03;101379.78;4160648;28;20107;-59
2022/03/28 07:51:01;;;;;;;25.20;17.25;;;;;;;11.77;64.46;101384.50;4161557;28;20454;-58
2022/03/28 07:53:05;;;;;;;19.90;15.90;;;;;;;11.78;64.04;101373.25;4161962;28;20038;-59
2022/03/28 07:55:10;;;;;;;25.40;17.30;;;;;;;11.87;64.23;101376.06;4166544;28;20084;-59
2022/03/28 07:57:15;;;;;;;22.60;15.73;;;;;;;11.92;63.62;101379.66;4165304;28;20111;-59
2022/03/28 07:59:17;;;;;;;27.33;16.10;;;;;;;11.85;63.60;101373.41;4157469;28;20041;-59
2022/03/28 08:01:20;;;;;;;22.10;15.88;;;;;;;11.78;63.42;101374.09;4168611;28;20040;-59
2022/03/28 08:03:24;;;;;;;24.45;15.13;;;;;;;11.84;62.88;101374.28;4168474;28;20515;-58
2022/03/28 08:05:30;;;;;;;19.50;14.63;;;;;;;11.92;62.80;101371.84;4159091;28;20123;-59
2022/03/28 08:07:52;;;;;;;17.92;12.98;;;;;;;11.97;62.59;101366.75;4182995;28;20064;-58
2022/03/28 08:09:55;;;;;;;;;;;;;;;11.92;62.45;101369.25;4166178;28;20042;-58
2022/03/28 08:12:03;;;;;;;20.45;13.73;;;;;;;12.07;62.68;101373.94;4166505;28;19921;-59
2022/03/28 08:14:07;;;;;;;19.75;14.60;;;;;;;12.08;61.67;101367.91;4165307;28;20119;-59
2022/03/28 08:16:10;;;;;;;18.95;14.20;;;;;;;12.05;61.60;101357.41;4165015;28;20183;-59
2022/03/28 08:18:19;;;;;;;28.70;14.95;;;;;;;12.25;61.05;101359.56;4163822;28;20093;-59
2022/03/28 08:20:25;;;;;;;19.63;14.90;;;;;;;12.35;60.93;101353.69;4161546;28;20042;-59
2022/03/28 08:22:34;;;;;;;20.35;14.07;;;;;;;12.46;60.48;101353.94;4157929;28;20053;-58
2022/03/28 08:24:42;;;;;;;20.17;14.00;;;;;;;12.65;60.06;101352.59;4157293;28;20038;-58
2022/03/28 08:26:46;;;;;;;23.50;14.88;;;;;;;12.81;60.15;101346.81;4157258;28;20072;-59
2022/03/28 08:28:48;;;;;;;17.52;11.75;;;;;;;12.96;58.53;101345.34;4163064;28;20043;-59
2022/03/28 08:30:52;;;;;;;17.15;12.07;;;;;;;12.97;59.33;101344.50;4160277;28;20072;-59
2022/03/28 08:33:06;;;;;;;18.25;12.85;;;;;;;13.07;58.73;101336.00;4163280;28;20084;-59
2022/03/28 08:35:10;;;;;;;16.67;12.93;;;;;;;13.11;58.17;101332.56;4164926;28;20160;-59
2022/03/28 08:37:16;;;;;;;19.90;12.80;;;;;;;13.17;58.11;101335.31;4166224;28;20051;-59
2022/03/28 08:39:38;;;;;;;14.98;11.27;;;;;;;13.17;58.25;101337.91;4166181;28;20330;-59
2022/03/28 08:41:48;;;;;;;15.55;11.93;;;;;;;13.24;57.75;101337.19;4164425;28;20115;-58
2022/03/28 08:44:00;;;;;;;18.52;13.60;;;;;;;13.47;57.43;101331.47;4158266;28;20049;-58
2022/03/28 08:46:10;;;;;;;18.35;13.30;;;;;;;13.57;56.24;101333.38;4157444;28;20122;-59
2022/03/28 08:48:22;;;;;;;17.65;12.18;;;;;;;13.56;56.59;101336.84;4154117;28;20041;-59
2022/03/28 08:50:26;;;;;;;15.45;12.32;;;;;;;13.58;55.89;101329.03;4170742;28;20045;-59
2022/03/28 08:52:28;;;;;;;17.27;12.93;;;;;;;13.61;54.99;101329.09;4155311;28;20085;-59
2022/03/28 08:54:31;;;;;;;16.92;12.98;;;;;;;13.72;54.94;101332.72;4147322;28;20091;-59
2022/03/28 08:56:34;;;;;;;18.30;11.73;;;;;;;13.69;55.08;101332.69;4148630;28;20045;-60
2022/03/28 08:58:54;;;;;;;19.02;14.15;;;;;;;13.86;55.00;101325.13;4161574;28;20049;-60
2022/03/28 09:00:59;;;;;;;20.27;13.82;;;;;;;13.94;54.69;101326.13;4163212;28;20049;-59
2022/03/28 09:03:03;;;;;;;16.80;12.43;;;;;;;13.93;54.55;101321.72;4151310;28;20125;-60
2022/03/28 09:05:09;;;;;;;;;;;;;;;13.82;53.96;101328.53;4156457;28;20045;-59
2022/03/28 09:07:25;;;;;;;18.42;12.25;;;;;;;13.96;53.94;101326.13;4158445;28;19921;-59
2022/03/28 09:09:32;;;;;;;18.00;12.40;;;;;;;14.01;53.81;101319.22;4153316;28;20045;-60
2022/03/28 09:11:34;;;;;;;16.35;12.07;;;;;;;14.03;53.66;101311.38;4153136;28;20099;-60
2022/03/28 09:13:44;;;;;;;18.80;13.15;;;;;;;14.14;53.52;101320.28;4192933;28;20048;-60
2022/03/28 09:15:50;;;;;;;17.80;12.65;;;;;;;14.35;52.58;101322.28;4155966;28;20053;-60
2022/03/28 09:17:57;;;;;;;16.50;12.18;;;;;;;14.42;53.06;101321.50;4191955;28;20045;-60
2022/03/28 09:20:04;;;;;;;22.13;13.27;;;;;;;14.53;52.51;101319.03;4152670;28;20469;-59
2022/03/28 09:22:12;;;;;;;20.02;12.20;;;;;;;14.63;52.37;101313.06;4150086;28;20049;-59
2022/03/28 09:24:15;;;;;;;18.95;13.98;;;;;;;14.86;51.61;101312.41;4147803;28;20065;-59
2022/03/28 09:26:20;;;;;;;19.83;13.15;;;;;;;14.73;51.65;101310.53;4154150;28;20055;-59
2022/03/28 09:28:25;;;;;;;18.08;11.50;;;;;;;14.70;52.08;101305.28;4161037;28;20485;-59
2022/03/28 09:30:33;;;;;;;16.88;12.57;;;;;;;14.77;51.83;101300.09;4156694;28;20037;-59